Aeroporto :
LOGIN :

Iscrizione | Disclaimer

   EN    FR    IT 

 










Sommario :    VFR   VFR Marginale   IFR   IFR Intensivo   IFR Molto Intensivo
Visibilità : 
Base nubi : 
>= 8 km
>= 3000ft
5 / 8 km
1000 / 3000 ft
1500m / 5 km
500 / 1000 ft
800 / 1500m
200 / 500 ft
< 800m
< 200 ft
Simboli :   Temporali  Nebbia  Neve Forte  Precipitazioni Forti  Vento > 20 kt
SIGMETs :   Varie  Temporali  Ghiacco  Turbolenza  Onda orograficha  Ceneri Vulcaniche






- Altitudine del aeroporto : 844 ft
- Codice IATA : OSR


LKMT - Ostrava-Mosnov

ULTIMO METAR :
  • 261630Z 20009KT 9999 BKN023 OVC029 10/07 Q0998 NOSIG

METARs OBSOLETI :
  • 261600Z 20011KT 9999 FEW020 BKN030 10/07 Q0997 NOSIG
  • 261530Z 19010KT 9999 FEW020 BKN040 11/07 Q0997 NOSIG
  • 261500Z 21011KT 9999 BKN016 OVC036 10/07 Q0997 NOSIG
  • 261430Z 21012KT 9999 BKN020 10/07 Q0997 NOSIG
  • 261400Z 21013KT 9999 BKN016 10/07 Q0996 NOSIG

TAF TAF LKMT
Valido dal 26 a 12 ore il 27 a 18 ore UTC


261100Z 2612/2718 21009KT 9999 BKN020
TEMPO 2612/2616 22012G24KT 6000 -RA BKN008
PROB30
TEMPO 2612/2616 BKN004
BECMG 2616/2619 SCT030
TEMPO 2710/2715 24016KT 9999 BKN027



MetMap, La meteo Aeronautica in un colpo d'occhio ! - Copyright ORBIFLY Dicembre 2007 - Disclaimer

ORBIFLY MET'MAP TEAM :

Programmazione e sviluppo : Alexandra Zaïnal
Concezione : Baudouin d'Aumeries
Aiuto per la programmazione : Marc-Olivier Méhu
Supporto tecnico e logistico : Manuel Goepfert
Aiuto per la traduzione : Arnaldo La Scala

Contatto : metmap@orbifly.com




FONTI E CREDITI :

   NOAA